sensor_id;sensor_type;location;lat;lon;timestamp;temperature;humidity
7622;DHT22;3852;52.284;8.032;2022-09-28T00:02:14;9.20;99.90
7622;DHT22;3852;52.284;8.032;2022-09-28T00:04:40;9.30;99.90
7622;DHT22;3852;52.284;8.032;2022-09-28T00:07:05;9.20;99.90
7622;DHT22;3852;52.284;8.032;2022-09-28T00:09:31;9.20;99.90
7622;DHT22;3852;52.284;8.032;2022-09-28T00:11:57;9.20;99.90
7622;DHT22;3852;52.284;8.032;2022-09-28T00:14:23;9.20;99.90
7622;DHT22;3852;52.284;8.032;2022-09-28T00:16:50;9.20;99.90
7622;DHT22;3852;52.284;8.032;2022-09-28T00:19:16;9.20;99.90
7622;DHT22;3852;52.284;8.032;2022-09-28T00:21:42;9.30;99.90
7622;DHT22;3852;52.284;8.032;2022-09-28T00:24:11;9.20;99.90
7622;DHT22;3852;52.284;8.032;2022-09-28T00:29:27;9.20;99.90
7622;DHT22;3852;52.284;8.032;2022-09-28T00:31:58;9.20;99.90
7622;DHT22;3852;52.284;8.032;2022-09-28T00:34:38;9.20;99.90
7622;DHT22;3852;52.284;8.032;2022-09-28T00:37:11;9.20;99.90
7622;DHT22;3852;52.284;8.032;2022-09-28T00:39:38;9.20;99.90
7622;DHT22;3852;52.284;8.032;2022-09-28T00:42:16;9.10;99.90
7622;DHT22;3852;52.284;8.032;2022-09-28T00:44:50;9.20;99.90
7622;DHT22;3852;52.284;8.032;2022-09-28T00:56:03;9.10;99.90
7622;DHT22;3852;52.284;8.032;2022-09-28T00:58:42;9.10;99.90
7622;DHT22;3852;52.284;8.032;2022-09-28T01:01:10;9.10;99.90
7622;DHT22;3852;52.284;8.032;2022-09-28T01:03:37;9.00;99.90
7622;DHT22;3852;52.284;8.032;2022-09-28T01:06:12;9.00;99.90
7622;DHT22;3852;52.284;8.032;2022-09-28T01:08:43;9.20;99.90
7622;DHT22;3852;52.284;8.032;2022-09-28T01:11:10;9.20;99.90
7622;DHT22;3852;52.284;8.032;2022-09-28T01:13:36;9.20;99.90
7622;DHT22;3852;52.284;8.032;2022-09-28T01:27:48;9.00;99.90
7622;DHT22;3852;52.284;8.032;2022-09-28T01:30:20;8.90;99.90
7622;DHT22;3852;52.284;8.032;2022-09-28T01:37:54;8.90;99.90
7622;DHT22;3852;52.284;8.032;2022-09-28T01:40:25;8.90;99.90
7622;DHT22;3852;52.284;8.032;2022-09-28T01:42:57;8.80;99.90
7622;DHT22;3852;52.284;8.032;2022-09-28T01:45:40;8.80;99.90
7622;DHT22;3852;52.284;8.032;2022-09-28T01:48:09;8.90;99.90
7622;DHT22;3852;52.284;8.032;2022-09-28T01:50:40;8.80;99.90
7622;DHT22;3852;52.284;8.032;2022-09-28T01:53:29;8.80;99.90
7622;DHT22;3852;52.284;8.032;2022-09-28T01:56:06;8.80;99.90
7622;DHT22;3852;52.284;8.032;2022-09-28T01:59:10;8.90;99.90
7622;DHT22;3852;52.284;8.032;2022-09-28T02:01:42;8.90;99.90
7622;DHT22;3852;52.284;8.032;2022-09-28T02:04:50;8.90;99.90
7622;DHT22;3852;52.284;8.032;2022-09-28T02:10:16;8.90;99.90
7622;DHT22;3852;52.284;8.032;2022-09-28T02:13:02;9.00;99.90
7622;DHT22;3852;52.284;8.032;2022-09-28T02:15:44;9.00;99.90
7622;DHT22;3852;52.284;8.032;2022-09-28T02:18:13;9.00;99.90
7622;DHT22;3852;52.284;8.032;2022-09-28T02:20:40;9.00;99.90
7622;DHT22;3852;52.284;8.032;2022-09-28T02:23:08;9.00;99.90
7622;DHT22;3852;52.284;8.032;2022-09-28T02:25:48;8.90;99.90
7622;DHT22;3852;52.284;8.032;2022-09-28T02:28:17;8.90;99.90
7622;DHT22;3852;52.284;8.032;2022-09-28T02:30:43;9.00;99.90
7622;DHT22;3852;52.284;8.032;2022-09-28T02:33:23;9.00;99.90
7622;DHT22;3852;52.284;8.032;2022-09-28T02:35:53;9.00;99.90
7622;DHT22;3852;52.284;8.032;2022-09-28T02:38:19;9.00;99.90
7622;DHT22;3852;52.284;8.032;2022-09-28T02:40:54;9.00;99.90
7622;DHT22;3852;52.284;8.032;2022-09-28T02:46:37;9.00;99.90
7622;DHT22;3852;52.284;8.032;2022-09-28T03:00:07;8.90;99.90
7622;DHT22;3852;52.284;8.032;2022-09-28T03:06:09;8.90;99.90
7622;DHT22;3852;52.284;8.032;2022-09-28T03:08:47;8.90;99.90
7622;DHT22;3852;52.284;8.032;2022-09-28T03:11:24;8.80;99.90
7622;DHT22;3852;52.284;8.032;2022-09-28T03:14:03;8.80;99.90
7622;DHT22;3852;52.284;8.032;2022-09-28T03:16:29;8.70;99.90
7622;DHT22;3852;52.284;8.032;2022-09-28T03:18:57;8.70;99.90
7622;DHT22;3852;52.284;8.032;2022-09-28T03:21:23;8.70;99.90
7622;DHT22;3852;52.284;8.032;2022-09-28T03:23:49;8.70;99.90
7622;DHT22;3852;52.284;8.032;2022-09-28T03:26:15;8.70;99.90
7622;DHT22;3852;52.284;8.032;2022-09-28T03:28:41;8.60;99.90
7622;DHT22;3852;52.284;8.032;2022-09-28T03:31:07;8.60;99.90
7622;DHT22;3852;52.284;8.032;2022-09-28T03:33:33;8.60;99.90
7622;DHT22;3852;52.284;8.032;2022-09-28T03:35:59;8.60;99.90
7622;DHT22;3852;52.284;8.032;2022-09-28T03:38:24;8.50;99.90
7622;DHT22;3852;52.284;8.032;2022-09-28T03:40:58;8.60;99.90
7622;DHT22;3852;52.284;8.032;2022-09-28T03:43:25;8.60;99.90
7622;DHT22;3852;52.284;8.032;2022-09-28T03:45:56;8.50;99.90
7622;DHT22;3852;52.284;8.032;2022-09-28T03:48:25;8.50;99.90
7622;DHT22;3852;52.284;8.032;2022-09-28T03:50:54;8.50;99.90
7622;DHT22;3852;52.284;8.032;2022-09-28T03:53:21;8.50;99.90
7622;DHT22;3852;52.284;8.032;2022-09-28T03:55:47;8.50;99.90
7622;DHT22;3852;52.284;8.032;2022-09-28T03:58:15;8.50;99.90
7622;DHT22;3852;52.284;8.032;2022-09-28T04:00:41;8.50;99.90
7622;DHT22;3852;52.284;8.032;2022-09-28T04:03:07;8.50;99.90
7622;DHT22;3852;52.284;8.032;2022-09-28T04:05:33;8.50;99.90
7622;DHT22;3852;52.284;8.032;2022-09-28T04:07:59;8.50;99.90
7622;DHT22;3852;52.284;8.032;2022-09-28T04:10:25;8.50;99.90
7622;DHT22;3852;52.284;8.032;2022-09-28T04:12:57;8.50;99.90
7622;DHT22;3852;52.284;8.032;2022-09-28T04:15:23;8.50;99.90
7622;DHT22;3852;52.284;8.032;2022-09-28T04:17:49;8.50;99.90
7622;DHT22;3852;52.284;8.032;2022-09-28T04:20:16;8.50;99.90
7622;DHT22;3852;52.284;8.032;2022-09-28T04:22:42;8.50;99.90
7622;DHT22;3852;52.284;8.032;2022-09-28T04:25:09;8.50;99.90
7622;DHT22;3852;52.284;8.032;2022-09-28T04:27:34;8.50;99.90
7622;DHT22;3852;52.284;8.032;2022-09-28T04:30:19;8.50;99.90
7622;DHT22;3852;52.284;8.032;2022-09-28T04:32:46;8.60;99.90
7622;DHT22;3852;52.284;8.032;2022-09-28T04:35:12;8.60;99.90
7622;DHT22;3852;52.284;8.032;2022-09-28T04:37:38;8.60;99.90
7622;DHT22;3852;52.284;8.032;2022-09-28T04:40:05;8.60;99.90
7622;DHT22;3852;52.284;8.032;2022-09-28T04:42:31;8.70;99.90
7622;DHT22;3852;52.284;8.032;2022-09-28T04:44:57;8.70;99.90
7622;DHT22;3852;52.284;8.032;2022-09-28T04:47:23;8.70;99.90
7622;DHT22;3852;52.284;8.032;2022-09-28T04:49:49;8.60;99.90
7622;DHT22;3852;52.284;8.032;2022-09-28T04:52:15;8.70;99.90
7622;DHT22;3852;52.284;8.032;2022-09-28T04:54:41;8.70;99.90
7622;DHT22;3852;52.284;8.032;2022-09-28T04:57:07;8.70;99.90
7622;DHT22;3852;52.284;8.032;2022-09-28T04:59:32;8.70;99.90
7622;DHT22;3852;52.284;8.032;2022-09-28T05:01:58;8.70;99.90
7622;DHT22;3852;52.284;8.032;2022-09-28T05:04:27;8.70;99.90
7622;DHT22;3852;52.284;8.032;2022-09-28T05:06:53;8.80;99.90
7622;DHT22;3852;52.284;8.032;2022-09-28T05:09:19;8.70;99.90
7622;DHT22;3852;52.284;8.032;2022-09-28T05:11:44;8.70;99.90
7622;DHT22;3852;52.284;8.032;2022-09-28T05:14:11;8.80;99.90
7622;DHT22;3852;52.284;8.032;2022-09-28T05:16:37;8.80;99.90
7622;DHT22;3852;52.284;8.032;2022-09-28T05:19:02;8.80;99.90
7622;DHT22;3852;52.284;8.032;2022-09-28T05:21:28;8.80;99.90
7622;DHT22;3852;52.284;8.032;2022-09-28T05:23:55;8.80;99.90
7622;DHT22;3852;52.284;8.032;2022-09-28T05:26:22;8.80;99.90
7622;DHT22;3852;52.284;8.032;2022-09-28T05:28:48;8.80;99.90
7622;DHT22;3852;52.284;8.032;2022-09-28T05:31:15;8.80;99.90
7622;DHT22;3852;52.284;8.032;2022-09-28T05:33:41;8.80;99.90
7622;DHT22;3852;52.284;8.032;2022-09-28T05:36:10;8.80;99.90
7622;DHT22;3852;52.284;8.032;2022-09-28T05:38:35;8.80;99.90
7622;DHT22;3852;52.284;8.032;2022-09-28T05:41:01;8.80;99.90
7622;DHT22;3852;52.284;8.032;2022-09-28T05:43:28;8.70;99.90
7622;DHT22;3852;52.284;8.032;2022-09-28T05:45:54;8.70;99.90
7622;DHT22;3852;52.284;8.032;2022-09-28T05:48:19;8.70;99.90
7622;DHT22;3852;52.284;8.032;2022-09-28T05:50:52;8.70;99.90
7622;DHT22;3852;52.284;8.032;2022-09-28T05:53:18;8.70;99.90
7622;DHT22;3852;52.284;8.032;2022-09-28T05:55:44;8.60;99.90
7622;DHT22;3852;52.284;8.032;2022-09-28T05:58:10;8.50;99.90
7622;DHT22;3852;52.284;8.032;2022-09-28T06:00:35;8.60;99.90
7622;DHT22;3852;52.284;8.032;2022-09-28T06:03:04;8.60;99.90
7622;DHT22;3852;52.284;8.032;2022-09-28T06:05:33;8.70;99.90
7622;DHT22;3852;52.284;8.032;2022-09-28T06:08:01;8.70;99.90
7622;DHT22;3852;52.284;8.032;2022-09-28T06:10:29;8.70;99.90
7622;DHT22;3852;52.284;8.032;2022-09-28T06:12:55;8.80;99.90
7622;DHT22;3852;52.284;8.032;2022-09-28T06:15:23;8.70;99.90
7622;DHT22;3852;52.284;8.032;2022-09-28T06:18:02;8.70;99.90
7622;DHT22;3852;52.284;8.032;2022-09-28T06:20:34;8.80;99.90
7622;DHT22;3852;52.284;8.032;2022-09-28T06:23:01;8.80;99.90
7622;DHT22;3852;52.284;8.032;2022-09-28T06:25:27;8.80;99.90
7622;DHT22;3852;52.284;8.032;2022-09-28T06:28:01;8.80;99.90
7622;DHT22;3852;52.284;8.032;2022-09-28T06:30:29;8.80;99.90
7622;DHT22;3852;52.284;8.032;2022-09-28T06:32:58;8.90;99.90
7622;DHT22;3852;52.284;8.032;2022-09-28T06:35:26;8.90;99.90
7622;DHT22;3852;52.284;8.032;2022-09-28T06:37:55;8.90;99.90
7622;DHT22;3852;52.284;8.032;2022-09-28T06:40:22;8.90;99.90
7622;DHT22;3852;52.284;8.032;2022-09-28T06:45:29;8.90;99.90
7622;DHT22;3852;52.284;8.032;2022-09-28T06:47:59;9.00;99.90
7622;DHT22;3852;52.284;8.032;2022-09-28T06:50:34;8.90;99.90
7622;DHT22;3852;52.284;8.032;2022-09-28T06:53:03;9.00;99.90
7622;DHT22;3852;52.284;8.032;2022-09-28T06:55:31;9.00;99.90
7622;DHT22;3852;52.284;8.032;2022-09-28T06:57:58;9.00;99.90
7622;DHT22;3852;52.284;8.032;2022-09-28T07:00:27;9.10;99.90
7622;DHT22;3852;52.284;8.032;2022-09-28T07:02:55;9.10;99.90
7622;DHT22;3852;52.284;8.032;2022-09-28T07:05:21;9.20;99.90
7622;DHT22;3852;52.284;8.032;2022-09-28T07:07:54;9.30;99.90
7622;DHT22;3852;52.284;8.032;2022-09-28T07:10:22;9.30;99.90
7622;DHT22;3852;52.284;8.032;2022-09-28T07:12:53;9.40;99.90
7622;DHT22;3852;52.284;8.032;2022-09-28T07:15:23;9.30;99.90
7622;DHT22;3852;52.284;8.032;2022-09-28T07:17:55;9.20;99.90
7622;DHT22;3852;52.284;8.032;2022-09-28T07:20:22;9.20;99.90
7622;DHT22;3852;52.284;8.032;2022-09-28T07:22:57;9.10;99.90
7622;DHT22;3852;52.284;8.032;2022-09-28T07:25:24;9.00;99.90
7622;DHT22;3852;52.284;8.032;2022-09-28T07:27:54;9.10;99.90
7622;DHT22;3852;52.284;8.032;2022-09-28T07:30:28;9.00;99.90
7622;DHT22;3852;52.284;8.032;2022-09-28T07:32:58;9.00;99.90
7622;DHT22;3852;52.284;8.032;2022-09-28T07:35:24;9.10;99.90
7622;DHT22;3852;52.284;8.032;2022-09-28T07:38:05;9.10;99.90
7622;DHT22;3852;52.284;8.032;2022-09-28T07:40:32;9.20;99.90
7622;DHT22;3852;52.284;8.032;2022-09-28T07:43:18;9.30;99.90
7622;DHT22;3852;52.284;8.032;2022-09-28T07:45:50;9.20;99.90
7622;DHT22;3852;52.284;8.032;2022-09-28T07:48:17;9.20;99.90
7622;DHT22;3852;52.284;8.032;2022-09-28T07:50:53;9.30;99.90
7622;DHT22;3852;52.284;8.032;2022-09-28T07:53:22;9.30;99.90
7622;DHT22;3852;52.284;8.032;2022-09-28T07:55:57;9.30;99.90
7622;DHT22;3852;52.284;8.032;2022-09-28T07:58:32;9.40;99.90
7622;DHT22;3852;52.284;8.032;2022-09-28T08:01:03;9.30;99.90
7622;DHT22;3852;52.284;8.032;2022-09-28T08:03:36;9.50;99.90
7622;DHT22;3852;52.284;8.032;2022-09-28T08:06:05;9.50;99.90
7622;DHT22;3852;52.284;8.032;2022-09-28T08:08:35;9.40;99.90
7622;DHT22;3852;52.284;8.032;2022-09-28T08:11:01;9.50;99.90
7622;DHT22;3852;52.284;8.032;2022-09-28T08:13:27;9.40;99.90
7622;DHT22;3852;52.284;8.032;2022-09-28T08:15:54;9.50;99.90
7622;DHT22;3852;52.284;8.032;2022-09-28T08:18:20;9.50;99.90
7622;DHT22;3852;52.284;8.032;2022-09-28T08:20:46;9.50;99.90
7622;DHT22;3852;52.284;8.032;2022-09-28T08:23:30;9.50;99.90
7622;DHT22;3852;52.284;8.032;2022-09-28T08:25:56;9.40;99.90
7622;DHT22;3852;52.284;8.032;2022-09-28T08:28:23;9.50;99.90
7622;DHT22;3852;52.284;8.032;2022-09-28T08:30:49;9.40;99.90
7622;DHT22;3852;52.284;8.032;2022-09-28T08:33:16;9.40;99.90
7622;DHT22;3852;52.284;8.032;2022-09-28T08:35:45;9.40;99.90
7622;DHT22;3852;52.284;8.032;2022-09-28T08:38:11;9.50;99.90
7622;DHT22;3852;52.284;8.032;2022-09-28T08:46:32;9.60;99.90
7622;DHT22;3852;52.284;8.032;2022-09-28T08:49:11;9.80;99.90
7622;DHT22;3852;52.284;8.032;2022-09-28T08:51:53;9.80;99.90
7622;DHT22;3852;52.284;8.032;2022-09-28T08:57:15;9.90;99.90
7622;DHT22;3852;52.284;8.032;2022-09-28T08:59:49;9.80;99.90
7622;DHT22;3852;52.284;8.032;2022-09-28T09:02:32;9.70;99.90
7622;DHT22;3852;52.284;8.032;2022-09-28T09:05:03;9.80;99.90
7622;DHT22;3852;52.284;8.032;2022-09-28T09:07:58;9.80;99.90
7622;DHT22;3852;52.284;8.032;2022-09-28T09:22:54;10.00;99.90
7622;DHT22;3852;52.284;8.032;2022-09-28T09:25:00;9.90;99.90
7622;DHT22;3852;52.284;8.032;2022-09-28T09:28:07;9.70;99.90
7622;DHT22;3852;52.284;8.032;2022-09-28T09:34:15;9.90;99.90
7622;DHT22;3852;52.284;8.032;2022-09-28T09:37:05;10.00;99.90
7622;DHT22;3852;52.284;8.032;2022-09-28T09:45:53;10.10;99.90
7622;DHT22;3852;52.284;8.032;2022-09-28T09:48:28;10.10;99.90
7622;DHT22;3852;52.284;8.032;2022-09-28T09:51:01;10.00;99.90
7622;DHT22;3852;52.284;8.032;2022-09-28T09:53:41;10.10;99.90
7622;DHT22;3852;52.284;8.032;2022-09-28T09:56:29;10.00;99.90
7622;DHT22;3852;52.284;8.032;2022-09-28T09:59:04;10.00;99.90
7622;DHT22;3852;52.284;8.032;2022-09-28T10:01:37;10.10;99.90
7622;DHT22;3852;52.284;8.032;2022-09-28T10:04:11;10.30;99.90
7622;DHT22;3852;52.284;8.032;2022-09-28T10:06:42;10.60;99.90
7622;DHT22;3852;52.284;8.032;2022-09-28T10:09:21;11.20;99.90
7622;DHT22;3852;52.284;8.032;2022-09-28T10:11:49;11.10;99.90
7622;DHT22;3852;52.284;8.032;2022-09-28T10:14:18;10.90;99.90
7622;DHT22;3852;52.284;8.032;2022-09-28T10:16:52;10.70;99.90
7622;DHT22;3852;52.284;8.032;2022-09-28T10:19:27;10.70;99.90
7622;DHT22;3852;52.284;8.032;2022-09-28T10:21:56;10.70;99.90
7622;DHT22;3852;52.284;8.032;2022-09-28T10:27:24;10.60;99.90
7622;DHT22;3852;52.284;8.032;2022-09-28T10:32:25;10.50;99.90
7622;DHT22;3852;52.284;8.032;2022-09-28T10:35:19;10.40;99.90
7622;DHT22;3852;52.284;8.032;2022-09-28T10:40:46;10.30;99.90
7622;DHT22;3852;52.284;8.032;2022-09-28T10:43:28;10.30;99.90
7622;DHT22;3852;52.284;8.032;2022-09-28T10:46:06;10.30;99.90
7622;DHT22;3852;52.284;8.032;2022-09-28T10:48:51;10.30;99.90
7622;DHT22;3852;52.284;8.032;2022-09-28T10:51:48;10.20;99.90
7622;DHT22;3852;52.284;8.032;2022-09-28T10:54:18;10.20;99.90
7622;DHT22;3852;52.284;8.032;2022-09-28T10:56:48;10.10;99.90
7622;DHT22;3852;52.284;8.032;2022-09-28T11:02:20;10.10;99.90
7622;DHT22;3852;52.284;8.032;2022-09-28T11:04:58;10.10;99.90
7622;DHT22;3852;52.284;8.032;2022-09-28T11:07:44;10.30;99.90
7622;DHT22;3852;52.284;8.032;2022-09-28T11:10:40;10.50;99.90
7622;DHT22;3852;52.284;8.032;2022-09-28T11:13:08;10.50;99.90
7622;DHT22;3852;52.284;8.032;2022-09-28T11:15:41;10.70;99.90
7622;DHT22;3852;52.284;8.032;2022-09-28T11:18:26;10.80;99.90
7622;DHT22;3852;52.284;8.032;2022-09-28T11:21:12;10.80;99.90
7622;DHT22;3852;52.284;8.032;2022-09-28T11:23:39;11.00;99.90
7622;DHT22;3852;52.284;8.032;2022-09-28T11:26:09;11.10;99.90
7622;DHT22;3852;52.284;8.032;2022-09-28T11:28:38;11.10;99.90
7622;DHT22;3852;52.284;8.032;2022-09-28T11:31:05;11.10;99.90
7622;DHT22;3852;52.284;8.032;2022-09-28T11:33:37;11.10;99.90
7622;DHT22;3852;52.284;8.032;2022-09-28T11:39:19;11.60;99.90
7622;DHT22;3852;52.284;8.032;2022-09-28T11:42:00;11.90;99.90
7622;DHT22;3852;52.284;8.032;2022-09-28T11:44:43;11.80;99.90
7622;DHT22;3852;52.284;8.032;2022-09-28T11:47:35;11.50;99.90
7622;DHT22;3852;52.284;8.032;2022-09-28T11:50:20;11.40;99.90
7622;DHT22;3852;52.284;8.032;2022-09-28T12:01:13;10.90;99.90
7622;DHT22;3852;52.284;8.032;2022-09-28T12:03:57;10.80;99.90
7622;DHT22;3852;52.284;8.032;2022-09-28T12:06:57;10.80;99.90
7622;DHT22;3852;52.284;8.032;2022-09-28T12:09:36;10.60;99.90
7622;DHT22;3852;52.284;8.032;2022-09-28T12:12:20;10.60;99.90
7622;DHT22;3852;52.284;8.032;2022-09-28T12:15:00;10.50;99.90
7622;DHT22;3852;52.284;8.032;2022-09-28T12:17:40;10.60;99.90
7622;DHT22;3852;52.284;8.032;2022-09-28T12:20:33;10.60;99.90
7622;DHT22;3852;52.284;8.032;2022-09-28T12:23:17;10.70;99.90
7622;DHT22;3852;52.284;8.032;2022-09-28T12:26:01;10.60;99.90
7622;DHT22;3852;52.284;8.032;2022-09-28T12:31:16;10.70;99.90
7622;DHT22;3852;52.284;8.032;2022-09-28T12:33:49;10.70;99.90
7622;DHT22;3852;52.284;8.032;2022-09-28T12:42:46;10.70;99.90
7622;DHT22;3852;52.284;8.032;2022-09-28T12:48:09;10.60;99.90
7622;DHT22;3852;52.284;8.032;2022-09-28T13:11:37;11.40;99.90
7622;DHT22;3852;52.284;8.032;2022-09-28T13:15:03;11.50;99.90
7622;DHT22;3852;52.284;8.032;2022-09-28T13:26:24;11.70;99.90
7622;DHT22;3852;52.284;8.032;2022-09-28T13:28:59;11.90;99.90
7622;DHT22;3852;52.284;8.032;2022-09-28T13:31:30;11.90;99.90
7622;DHT22;3852;52.284;8.032;2022-09-28T13:34:00;12.00;99.90
7622;DHT22;3852;52.284;8.032;2022-09-28T13:38:57;11.90;99.90
7622;DHT22;3852;52.284;8.032;2022-09-28T13:41:28;11.90;99.90
7622;DHT22;3852;52.284;8.032;2022-09-28T13:52:44;11.90;99.90
7622;DHT22;3852;52.284;8.032;2022-09-28T13:58:20;12.00;99.90
7622;DHT22;3852;52.284;8.032;2022-09-28T14:00:58;12.20;99.90
7622;DHT22;3852;52.284;8.032;2022-09-28T14:06:41;12.10;99.90
7622;DHT22;3852;52.284;8.032;2022-09-28T14:14:47;12.10;99.90
7622;DHT22;3852;52.284;8.032;2022-09-28T14:32:24;12.20;99.90
7622;DHT22;3852;52.284;8.032;2022-09-28T14:35:00;12.00;99.90
7622;DHT22;3852;52.284;8.032;2022-09-28T14:37:30;11.90;99.90
7622;DHT22;3852;52.284;8.032;2022-09-28T14:40:20;11.80;99.90
7622;DHT22;3852;52.284;8.032;2022-09-28T14:48:48;11.60;99.90
7622;DHT22;3852;52.284;8.032;2022-09-28T14:59:31;11.40;99.90
7622;DHT22;3852;52.284;8.032;2022-09-28T15:04:34;11.30;99.90
7622;DHT22;3852;52.284;8.032;2022-09-28T15:07:03;11.30;99.90
7622;DHT22;3852;52.284;8.032;2022-09-28T15:09:31;11.40;99.90
7622;DHT22;3852;52.284;8.032;2022-09-28T15:12:00;11.50;99.90
7622;DHT22;3852;52.284;8.032;2022-09-28T15:14:37;11.50;99.90
7622;DHT22;3852;52.284;8.032;2022-09-28T15:17:10;11.50;99.90
7622;DHT22;3852;52.284;8.032;2022-09-28T15:22:21;11.50;99.90
7622;DHT22;3852;52.284;8.032;2022-09-28T15:24:57;11.50;99.90
7622;DHT22;3852;52.284;8.032;2022-09-28T15:27:25;11.50;99.90
7622;DHT22;3852;52.284;8.032;2022-09-28T15:30:00;11.50;99.90
7622;DHT22;3852;52.284;8.032;2022-09-28T15:32:35;11.50;99.90
7622;DHT22;3852;52.284;8.032;2022-09-28T15:35:25;11.40;99.90
7622;DHT22;3852;52.284;8.032;2022-09-28T15:37:52;11.50;99.90
7622;DHT22;3852;52.284;8.032;2022-09-28T15:40:35;11.60;99.90
7622;DHT22;3852;52.284;8.032;2022-09-28T15:43:26;11.50;99.90
7622;DHT22;3852;52.284;8.032;2022-09-28T15:46:14;11.50;99.90
7622;DHT22;3852;52.284;8.032;2022-09-28T15:48:52;11.50;99.90
7622;DHT22;3852;52.284;8.032;2022-09-28T15:51:20;11.50;99.90
7622;DHT22;3852;52.284;8.032;2022-09-28T15:56:26;11.40;99.90
7622;DHT22;3852;52.284;8.032;2022-09-28T16:02:18;11.50;99.90
7622;DHT22;3852;52.284;8.032;2022-09-28T16:04:53;11.50;99.90
7622;DHT22;3852;52.284;8.032;2022-09-28T16:07:35;11.40;99.90
7622;DHT22;3852;52.284;8.032;2022-09-28T16:15:12;11.20;99.90
7622;DHT22;3852;52.284;8.032;2022-09-28T16:17:42;11.20;99.90
7622;DHT22;3852;52.284;8.032;2022-09-28T16:20:26;11.10;99.90
7622;DHT22;3852;52.284;8.032;2022-09-28T16:22:55;11.10;99.90
7622;DHT22;3852;52.284;8.032;2022-09-28T16:25:27;11.00;99.90
7622;DHT22;3852;52.284;8.032;2022-09-28T16:27:53;11.00;99.90
7622;DHT22;3852;52.284;8.032;2022-09-28T16:30:22;11.00;99.90
7622;DHT22;3852;52.284;8.032;2022-09-28T16:32:50;10.90;99.90
7622;DHT22;3852;52.284;8.032;2022-09-28T16:35:24;10.90;99.90
7622;DHT22;3852;52.284;8.032;2022-09-28T16:38:14;10.80;99.90
7622;DHT22;3852;52.284;8.032;2022-09-28T16:40:46;10.70;99.90
7622;DHT22;3852;52.284;8.032;2022-09-28T16:43:28;10.70;99.90
7622;DHT22;3852;52.284;8.032;2022-09-28T16:45:59;10.60;99.90
7622;DHT22;3852;52.284;8.032;2022-09-28T16:48:30;10.50;99.90
7622;DHT22;3852;52.284;8.032;2022-09-28T16:50:57;10.50;99.90
7622;DHT22;3852;52.284;8.032;2022-09-28T16:53:24;10.40;99.90
7622;DHT22;3852;52.284;8.032;2022-09-28T16:56:09;10.40;99.90
7622;DHT22;3852;52.284;8.032;2022-09-28T16:58:35;10.40;99.90
7622;DHT22;3852;52.284;8.032;2022-09-28T17:01:04;10.30;99.90
7622;DHT22;3852;52.284;8.032;2022-09-28T17:03:33;10.20;99.90
7622;DHT22;3852;52.284;8.032;2022-09-28T17:05:59;10.10;99.90
7622;DHT22;3852;52.284;8.032;2022-09-28T17:08:28;10.10;99.90
7622;DHT22;3852;52.284;8.032;2022-09-28T17:10:58;10.00;99.90
7622;DHT22;3852;52.284;8.032;2022-09-28T17:13:27;9.90;99.90
7622;DHT22;3852;52.284;8.032;2022-09-28T17:16:05;9.90;99.90
7622;DHT22;3852;52.284;8.032;2022-09-28T17:18:33;9.80;99.90
7622;DHT22;3852;52.284;8.032;2022-09-28T17:21:04;9.80;99.90
7622;DHT22;3852;52.284;8.032;2022-09-28T17:23:31;9.70;99.90
7622;DHT22;3852;52.284;8.032;2022-09-28T17:25:58;9.70;99.90
7622;DHT22;3852;52.284;8.032;2022-09-28T17:28:35;9.60;99.90
7622;DHT22;3852;52.284;8.032;2022-09-28T17:31:02;9.50;99.90
7622;DHT22;3852;52.284;8.032;2022-09-28T17:33:28;9.50;99.90
7622;DHT22;3852;52.284;8.032;2022-09-28T17:35:59;9.50;99.90
7622;DHT22;3852;52.284;8.032;2022-09-28T17:38:26;9.50;99.90
7622;DHT22;3852;52.284;8.032;2022-09-28T17:40:52;9.40;99.90
7622;DHT22;3852;52.284;8.032;2022-09-28T17:43:18;9.40;99.90
7622;DHT22;3852;52.284;8.032;2022-09-28T17:45:45;9.40;99.90
7622;DHT22;3852;52.284;8.032;2022-09-28T17:48:13;9.40;99.90
7622;DHT22;3852;52.284;8.032;2022-09-28T17:50:44;9.30;99.90
7622;DHT22;3852;52.284;8.032;2022-09-28T17:53:12;9.30;99.90
7622;DHT22;3852;52.284;8.032;2022-09-28T17:55:38;9.40;99.90
7622;DHT22;3852;52.284;8.032;2022-09-28T17:58:19;9.30;99.90
7622;DHT22;3852;52.284;8.032;2022-09-28T18:00:48;9.30;99.90
7622;DHT22;3852;52.284;8.032;2022-09-28T18:03:20;9.30;99.90
7622;DHT22;3852;52.284;8.032;2022-09-28T18:05:49;9.30;99.90
7622;DHT22;3852;52.284;8.032;2022-09-28T18:08:22;9.30;99.90
7622;DHT22;3852;52.284;8.032;2022-09-28T18:10:49;9.20;99.90
7622;DHT22;3852;52.284;8.032;2022-09-28T18:13:15;9.30;99.90
7622;DHT22;3852;52.284;8.032;2022-09-28T18:15:41;9.20;99.90
7622;DHT22;3852;52.284;8.032;2022-09-28T18:18:07;9.20;99.90
7622;DHT22;3852;52.284;8.032;2022-09-28T18:20:37;9.20;99.90
7622;DHT22;3852;52.284;8.032;2022-09-28T18:23:03;9.10;99.90
7622;DHT22;3852;52.284;8.032;2022-09-28T18:25:31;9.10;99.90
7622;DHT22;3852;52.284;8.032;2022-09-28T18:27:57;9.10;99.90
7622;DHT22;3852;52.284;8.032;2022-09-28T18:30:24;9.10;99.90
7622;DHT22;3852;52.284;8.032;2022-09-28T18:32:51;9.10;99.90
7622;DHT22;3852;52.284;8.032;2022-09-28T18:35:17;9.10;99.90
7622;DHT22;3852;52.284;8.032;2022-09-28T18:37:43;9.10;99.90
7622;DHT22;3852;52.284;8.032;2022-09-28T18:40:10;9.00;99.90
7622;DHT22;3852;52.284;8.032;2022-09-28T18:42:38;9.00;99.90
7622;DHT22;3852;52.284;8.032;2022-09-28T18:45:06;9.00;99.90
7622;DHT22;3852;52.284;8.032;2022-09-28T18:47:36;8.90;99.90
7622;DHT22;3852;52.284;8.032;2022-09-28T18:50:03;8.90;99.90
7622;DHT22;3852;52.284;8.032;2022-09-28T18:52:29;8.90;99.90
7622;DHT22;3852;52.284;8.032;2022-09-28T18:54:55;9.10;99.90
7622;DHT22;3852;52.284;8.032;2022-09-28T18:57:21;9.10;99.90
7622;DHT22;3852;52.284;8.032;2022-09-28T18:59:47;9.20;99.90
7622;DHT22;3852;52.284;8.032;2022-09-28T19:02:13;9.30;99.90
7622;DHT22;3852;52.284;8.032;2022-09-28T19:04:39;9.40;99.90
7622;DHT22;3852;52.284;8.032;2022-09-28T19:07:06;9.40;99.90
7622;DHT22;3852;52.284;8.032;2022-09-28T19:09:35;9.50;99.90
7622;DHT22;3852;52.284;8.032;2022-09-28T19:12:00;9.60;99.90
7622;DHT22;3852;52.284;8.032;2022-09-28T19:14:27;9.60;99.90
7622;DHT22;3852;52.284;8.032;2022-09-28T19:16:52;9.60;99.90
7622;DHT22;3852;52.284;8.032;2022-09-28T19:19:19;9.60;99.90
7622;DHT22;3852;52.284;8.032;2022-09-28T19:21:45;9.70;99.90
7622;DHT22;3852;52.284;8.032;2022-09-28T19:24:16;9.70;99.90
7622;DHT22;3852;52.284;8.032;2022-09-28T19:26:43;9.70;99.90
7622;DHT22;3852;52.284;8.032;2022-09-28T19:29:11;9.70;99.90
7622;DHT22;3852;52.284;8.032;2022-09-28T19:31:37;9.70;99.90
7622;DHT22;3852;52.284;8.032;2022-09-28T19:34:03;9.70;99.90
7622;DHT22;3852;52.284;8.032;2022-09-28T19:36:29;9.70;99.90
7622;DHT22;3852;52.284;8.032;2022-09-28T19:38:57;9.80;99.90
7622;DHT22;3852;52.284;8.032;2022-09-28T19:41:29;9.80;99.90
7622;DHT22;3852;52.284;8.032;2022-09-28T19:44:27;9.70;99.90
7622;DHT22;3852;52.284;8.032;2022-09-28T19:46:59;9.70;99.90
7622;DHT22;3852;52.284;8.032;2022-09-28T19:49:31;9.60;99.90
7622;DHT22;3852;52.284;8.032;2022-09-28T19:52:09;9.70;99.90
7622;DHT22;3852;52.284;8.032;2022-09-28T19:54:40;9.60;99.90
7622;DHT22;3852;52.284;8.032;2022-09-28T19:57:11;9.60;99.90
7622;DHT22;3852;52.284;8.032;2022-09-28T19:59:37;9.60;99.90
7622;DHT22;3852;52.284;8.032;2022-09-28T20:02:04;9.50;99.90
7622;DHT22;3852;52.284;8.032;2022-09-28T20:04:31;9.50;99.90
7622;DHT22;3852;52.284;8.032;2022-09-28T20:06:57;9.50;99.90
7622;DHT22;3852;52.284;8.032;2022-09-28T20:09:23;9.50;99.90
7622;DHT22;3852;52.284;8.032;2022-09-28T20:11:49;9.50;99.90
7622;DHT22;3852;52.284;8.032;2022-09-28T20:14:16;9.40;99.90
7622;DHT22;3852;52.284;8.032;2022-09-28T20:16:43;9.40;99.90